CheckWX is a tool to help pilots better visualize weather data.  It is not intended as a substitute for an official pre-flight weather briefing.

19:13:59 UTC

KLCQ METAR
Lake City Gateway Airport
Lake City, Florida, USA
Current

19 mins ago

KLCQ 261855Z AUTO 00000KT 10SM CLR 35/18 A3010 RMK AO2
Observed
May-26 @ 18:55 UTC
Visibility
10 SM
Flight Rules
VFR
Cloud Levels
  • Clear skies
Temperature
35°C / 95°F
Dewpoint
18°C / 64°F
Humidity
36%
Altimeter
30.1" Hg
Pressure
1019.32 hPa
Previous

39 mins ago

KLCQ 261835Z AUTO 07004KT 10SM CLR 34/17 A3010 RMK AO2
Observed
May-26 @ 18:35 UTC
Wind
  • 070° at 4 KTS
Visibility
10 SM
Flight Rules
VFR
Cloud Levels
  • Clear skies
Temperature
34°C / 93°F
Dewpoint
17°C / 63°F
Humidity
36%
Altimeter
30.1" Hg
Pressure
1019.32 hPa
Previous

59 mins ago

KLCQ 261815Z AUTO 32005KT 10SM CLR 34/17 A3011 RMK AO2
Observed
May-26 @ 18:15 UTC
Wind
  • 320° at 5 KTS
Visibility
10 SM
Flight Rules
VFR
Cloud Levels
  • Clear skies
Temperature
34°C / 93°F
Dewpoint
17°C / 63°F
Humidity
36%
Altimeter
30.11" Hg
Pressure
1019.62 hPa